• Join FlightAware (Why Join?)
  • Login
  • US Flag 
02:17PM EDT


 

Airport Tracker/Info


-or-


 

Live Flight TrackerFlight Track Log ✈ N10QW ✈ 14-May-2013 ✈ KSLN - KLEX

Flight Track Log - Related Links

Times and Time Zones

All times are in EDT time to prevent confusion due to time zone crossing. See the N10QW flight status page for this flight to view local times or setup timezone preferences in your user account.

Time Position Orientation Groundspeed Altitude Reporting Facility
EDT Latitude Longitude Course Direction KTS MPH feet Rate Location/Type
07:52PM 38.7642 -97.6456 90° East 136 157 2,200  Level Kansas City Center
07:53PM 38.7467 -97.5953 114° Southeast 186 214 3,800 1,680 Climbing Kansas City Center
07:54PM 38.7478 -97.5217 89° East 198 228 5,700 1,740 Climbing Kansas City Center
07:55PM 38.7469 -97.4472 91° East 200 230 7,500 1,860 Climbing Kansas City Center
07:56PM 38.7467 -97.3764 90° East 193 222 9,600 1,800 Climbing Kansas City Center
07:57PM 38.7834 -96.9793 90° East  Level FlightAware Approximate
07:57PM 38.7464 -97.3064 90° East 189 217 11,300  Level Kansas City Center
07:59PM 38.7461 -97.2347 90° East 193 222 13,100 1,560 Climbing Kansas City Center
08:00PM 38.7458 -97.1692 90° East 192 221 14,600 1,380 Climbing Kansas City Center
08:01PM 38.7453 -97.0997 91° East 197 227 16,000 1,260 Climbing Kansas City Center
08:02PM 38.7447 -97.0275 91° East 202 232 17,300 1,260 Climbing Kansas City Center
08:03PM 38.7439 -96.9542 91° East 205 236 18,700 1,200 Climbing Kansas City Center
08:04PM 38.7433 -96.8792 91° East 209 241 19,900 1,200 Climbing Kansas City Center
08:05PM 38.7428 -96.7892 90° East 210 242 21,300 1,080 Climbing Kansas City Center
08:06PM 38.7436 -96.7125 89° East 213 245 22,200 780 Climbing Kansas City Center
08:07PM 38.7433 -96.6347 90° East 217 250 23,000 360 Climbing Kansas City Center
08:08PM 38.7417 -96.5467 91° East 238 274 23,000  Level Kansas City Center
08:09PM 38.7414 -96.4517 90° East 264 304 23,000  Level Kansas City Center
08:10PM 38.7383 -96.3411 92° East 276 318 23,000  Level Kansas City Center
08:11PM 38.7367 -96.2453 91° East 280 322 23,000  Level Kansas City Center
08:12PM 38.7353 -96.1367 91° East 276 318 23,000  Level Kansas City Center
08:13PM 38.7331 -96.0406 92° East 280 322 23,000  Level Kansas City Center
08:14PM 38.7317 -95.9311 91° East 277 319 23,000  Level Kansas City Center
08:15PM 38.7297 -95.8358 91° East 279 321 23,000  Level Kansas City Center
08:16PM 38.7278 -95.7250 91° East 280 322 23,000  Level Kansas City Center
08:17PM 38.7269 -95.6300 91° East 279 321 23,000  Level Kansas City Center
08:18PM 38.7236 -95.5194 92° East 279 321 23,000  Level Kansas City Center
08:19PM 38.7222 -95.4247 91° East 279 321 23,000  Level Kansas City Center
08:20PM 38.7206 -95.3153 91° East 277 319 23,000  Level Kansas City Center
08:21PM 38.7181 -95.2206 92° East 277 319 23,000  Level Kansas City Center
08:22PM 38.7158 -95.1108 91° East 278 320 23,000  Level Kansas City Center
08:23PM 38.7128 -95.0161 92° East 278 320 23,000  Level Kansas City Center
08:24PM 38.7117 -94.9208 91° East 280 322 23,000  Level Kansas City Center
08:25PM 38.7086 -94.8100 92° East 278 320 23,000  Level Kansas City Center
08:26PM 38.7056 -94.7167 92° East 278 320 23,000  Level Kansas City Center
08:27PM 38.7033 -94.6058 91° East 279 321 23,000  Level Kansas City Center
08:28PM 38.6997 -94.5106 93° East 279 321 23,000  Level Kansas City Center
08:29PM 38.6972 -94.4000 92° East 279 321 23,000  Level Kansas City Center
08:30PM 38.6942 -94.3056 92° East 277 319 23,000  Level Kansas City Center
08:32PM 38.6914 -94.1950 92° East 279 321 23,000  Level Kansas City Center
08:33PM 38.6881 -94.0989 93° East 280 322 23,000  Level Kansas City Center
08:34PM 38.6853 -94.0042 92° East 279 321 23,000  Level Kansas City Center
08:35PM 38.6808 -93.8928 93° East 281 323 23,000  Level Kansas City Center
08:36PM 38.6772 -93.7978 93° East 280 322 23,000  Level Kansas City Center
08:37PM 38.6744 -93.6819 92° East 283 326 23,000  Level Kansas City Center
08:38PM 38.6714 -93.5814 92° East 283 326 23,000  Level Kansas City Center
08:39PM 38.6678 -93.4811 93° East 282 325 23,000  Level Kansas City Center
08:40PM 38.6636 -93.3800 93° East 283 326 23,000  Level Kansas City Center
08:41PM 38.6600 -93.2789 93° East 283 326 23,000  Level Kansas City Center
08:42PM 38.6556 -93.1775 93° East 285 328 23,000  Level Kansas City Center
08:43PM 38.6511 -93.0769 93° East 284 327 23,000  Level Kansas City Center
08:44PM 38.6464 -92.9761 93° East 282 325 23,000  Level Kansas City Center
08:45PM 38.6422 -92.8542 92° East 284 327 23,000  Level Kansas City Center
08:46PM 38.6375 -92.7519 93° East 286 329 23,000  Level Kansas City Center
08:47PM 38.6328 -92.6497 93° East 287 330 23,000  Level Kansas City Center
08:48PM 38.6283 -92.5467 93° East 287 330 23,000  Level Kansas City Center
08:49PM 38.6242 -92.4436 93° East 289 333 23,000  Level Kansas City Center
08:50PM 38.6192 -92.3381 93° East 293 337 23,000  Level Kansas City Center
08:51PM 38.6144 -92.2350 93° East 291 335 23,000  Level Kansas City Center
08:52PM 38.6089 -92.1319 94° East 290 334 23,000  Level Kansas City Center
08:53PM 38.6044 -92.0281 93° East 291 335 23,000  Level Kansas City Center
08:54PM 38.5975 -91.9036 94° East 291 335 23,000  Level Kansas City Center
08:55PM 38.5922 -91.8000 94° East 292 336 23,000  Level Kansas City Center
08:56PM 38.5875 -91.6969 93° East 291 335 23,000  Level Kansas City Center
08:57PM 38.5814 -91.5928 94° East 292 336 23,000  Level Kansas City Center
08:58PM 38.5767 -91.4892 93° East 292 336 23,000  Level Kansas City Center
08:59PM 38.5703 -91.3850 94° East 292 336 23,000  Level Kansas City Center
09:00PM 38.5644 -91.2731 94° East 293 337 23,000  Level Kansas City Center
09:01PM 38.5581 -91.1703 95° East 291 335 23,000  Level Kansas City Center
09:02PM 38.5517 -91.0664 94° East 293 337 23,000  Level Kansas City Center
09:03PM 38.5458 -90.9633 94° East 293 337 23,000  Level Kansas City Center
09:04PM 38.5397 -90.8606 94° East 292 336 23,000  Level Kansas City Center
09:05PM 38.5336 -90.7564 94° East 294 338 23,000  Level Kansas City Center
09:07PM 38.5256 -90.6356 95° East 295 339 23,000  Level Kansas City Center
09:08PM 38.5178 -90.5317 95° East 295 339 23,000  Level Kansas City Center
09:09PM 38.5119 -90.4269 94° East 295 339 23,000  Level Kansas City Center
09:10PM 38.5047 -90.3225 95° East 295 339 23,000  Level Kansas City Center
09:11PM 38.4989 -90.2172 94° East 300 345 23,000  Level Kansas City Center
09:12PM 38.4914 -90.0953 94° East 293 337 23,000  Level Kansas City Center
09:13PM 38.4836 -89.9897 95° East 299 344 23,000  Level Kansas City Center
09:14PM 38.4761 -89.8856 95° East 297 342 23,000  Level Kansas City Center
09:15PM 38.4692 -89.7822 95° East 296 341 23,000  Level Kansas City Center
09:16PM 38.4622 -89.6658 94° East 296 341 23,000  Level Kansas City Center
09:17PM 38.4547 -89.5536 95° East 296 341 23,000  Level Kansas City Center
09:18PM 38.4472 -89.4494 95° East 297 342 23,000  Level Kansas City Center
09:19PM 38.4394 -89.3453 95° East 298 343 23,000  Level Kansas City Center
09:20PM 38.4314 -89.2339 95° East 297 342 23,000  Level Kansas City Center
09:21PM 38.4236 -89.1297 95° East 297 342 23,000  Level Kansas City Center
09:22PM 38.4156 -89.0169 95° East 296 341 23,000  Level Kansas City Center
09:23PM 38.4075 -88.9133 96° East 295 339 23,000  Level Kansas City Center
09:24PM 38.3994 -88.8067 95° East 302 348 23,000  Level Kansas City Center
09:25PM 38.3906 -88.6928 96° East 302 348 23,000  Level Kansas City Center
09:26PM 38.3811 -88.5906 97° East 300 345 23,000  Level Kansas City Center
09:27PM 38.3733 -88.4850 95° East 299 344 23,000  Level Kansas City Center
09:28PM 38.3650 -88.3794 96° East 299 344 23,000  Level Kansas City Center
09:29PM 38.3561 -88.2747 96° East 298 343 23,000  Level Kansas City Center
09:30PM 38.3478 -88.1706 96° East 296 341 23,000  Level Kansas City Center
09:31PM 38.3381 -88.0636 97° East 301 346 23,000  Level Kansas City Center
09:31PM 38.3353 -88.0217 95° East 300 345 23,000  Level Indianapolis Center
09:33PM 38.3269 -87.9183 96° East 296 341 23,000  Level Indianapolis Center
09:34PM 38.3183 -87.8139 96° East 297 342 23,000  Level Indianapolis Center
09:35PM 38.3092 -87.7089 96° East 297 342 23,000  Level Indianapolis Center
09:36PM 38.3000 -87.6042 96° East 297 342 23,000  Level Indianapolis Center
09:37PM 38.2900 -87.4986 97° East 298 343 23,000  Level Indianapolis Center
09:38PM 38.2789 -87.3725 96° East 299 344 23,000  Level Indianapolis Center
09:39PM 38.2694 -87.2669 96° East 301 346 23,000  Level Indianapolis Center
09:40PM 38.2594 -87.1608 97° East 303 349 23,000  Level Indianapolis Center
09:41PM 38.2506 -87.0592 96° East 306 352 23,000  Level Indianapolis Center
09:42PM 38.2408 -86.9531 97° East 302 348 23,000  Level Indianapolis Center
09:43PM 38.2306 -86.8475 97° East 302 348 23,000  Level Indianapolis Center
09:44PM 38.2189 -86.7206 97° East 302 348 23,000  Level Indianapolis Center
09:45PM 38.2083 -86.6131 97° East 305 351 23,000  Level Indianapolis Center
09:46PM 38.1983 -86.5081 97° East 299 344 23,000  Level Indianapolis Center
09:47PM 38.1878 -86.4014 97° East 303 349 23,000  Level Indianapolis Center
09:48PM 38.1775 -86.2956 97° East 302 348 23,000  Level Indianapolis Center
09:49PM 38.1667 -86.1869 97° East 308 354 23,000  Level Indianapolis Center
09:50PM 38.1558 -86.0822 97° East 300 345 23,000 -720 Level Indianapolis Center
09:51PM 38.1439 -85.9711 98° East 314 361 21,600 -1,620 Descending Indianapolis Center
09:52PM 38.1322 -85.8533 97° East 331 381 19,800 -1,800 Descending Indianapolis Center
09:53PM 38.1203 -85.7378 97° East 328 377 18,000 -1,860 Descending Indianapolis Center
09:54PM 38.1067 -85.6019 97° East 324 373 16,000 -1,860 Descending Indianapolis Center
09:55PM 38.0967 -85.4900 96° East 317 365 14,300 -1,680 Descending Indianapolis Center
09:56PM 38.0914 -85.3806 93° East 313 360 12,600 -1,620 Descending Indianapolis Center
09:57PM 38.0833 -85.2717 95° East 311 358 11,100 -840 Descending Indianapolis Center
09:58PM 38.0775 -85.1686 94° East 287 330 11,000 -60 Descending Indianapolis Center
09:59PM 38.0722 -85.0764 94° East 267 307 11,000 -480 Level Indianapolis Center
10:00PM 38.0744 -84.9833 88° East 263 303 10,100 -1,320 Descending Indianapolis Center
10:01PM 38.0761 -84.8858 89° East 272 313 8,300 -1,800 Descending Indianapolis Center
10:02PM 38.0783 -84.7944 88° East 263 303 6,500 -1,800 Descending Indianapolis Center
10:03PM 38.0828 -84.7042 86° East 257 296 4,700 -1,740 Descending Indianapolis Center
10:04PM 38.1019 -84.6231 73° East 245 282 3,000 -1,680 Descending Indianapolis Center
10:06PM 38.0333 -84.6000 90° East  Level FlightAware Approximate
10:13PM 38.0368 -84.6086 90° East  Level Estimated
10:14PM 38.0368 -84.6086 90° East  Level Estimated
10:15PM 38.0368 -84.6086 90° East  Level Estimated